الصفحة الرئيسية
METAR-TAF:

METAR-TAF

مطار :

مطار الملكة علياء الدولي

عمان-مطار الملكة علياء الدولي, الأردن

دائرة عرض: 31-40N, خط طول: 035-58E, ارتفاع: 721 متر

مراقبة الطقس الحالي

تاريخ ووقت الإصدار 27 دقيقة قبل الساعة 18:00UTC
ريح 6 عقدة من الغرب
درجة الحرارة 8°درجة مئوية
الرطوبة 76%
ضغط 1020 hPa
الرؤية: 8000 متر

METAR: OJAI 221800Z 28006KT 8000 NSC 08/04 Q1020 NOSIG

زمن: 21:27 (18:27 UTC)

توقعات

تاريخ ووقت الإصدار 1ساعة و 37 دقيقة قبل الساعة 16:50UTC
التوقعات صالحة من22 الساعة 18 UTC إلى 24 الساعة 00 UTC
ريح 10 عقدة من الغرب
الرؤية: 7000 متر
غيوم متفرقة على ارتفاع 3000 قدم
أصبح
من 22 الساعة 20 UTC إلى 22 الساعة 22 UTC
ريح 2 عقدةمن اتجاهات متغيرة
الرؤية: 4000 متر
غيوم قليلة على ارتفاع 3500 قدم
غشاء
نظرية الاحتمالات 40%
من 23 الساعة 02 UTC إلى 23 الساعة 06 UTC
الرؤية: 0800 متر
ضباب
أصبح
من 23 الساعة 06 UTC إلى 23 الساعة 08 UTC
ريح 6 عقدة من الشمال الغربي
الرؤية: 5000 متر
العجاج

TAF: OJAI 221650Z 2218/2400 28010KT 7000 SCT030 BECMG 2220/2222 VRB02KT 4000 BR FEW035 PROB40 2302/2306 0800 FG BECMG 2306/2308 32006KT 5000 HZ NSC

أرصاد الطقس والتوقعات من أكثر من 4000 مطار (تقارير الطقس للمطار METAR والتنبؤ بالطقس بالمطارTAF).

المحطات المتاحة هي النقط الصفراء والحمراء على الخريطة.

حرك المؤشر فوق النقطة لمعرفة اسم المحطة.

ثم انقر لمعرفة أرصاد وتوقعات الطقس.

لتغيير الخارطة: اضغط على الأزرار الخضراء مع رمز الصليب الأسود للتكبير. على الزر الأخضر مع شرطة للتصغير، أو على الأسهم الخضراء للخرائط المجاورة.


METAR-TAF: